createdAt,value
2022-12-01T00:00:19.448Z,6.46
2022-12-01T00:01:19.433Z,6.28
2022-12-01T00:02:19.622Z,6.25
2022-12-01T00:03:19.591Z,6.38
2022-12-01T00:04:19.399Z,6.46
2022-12-01T00:05:19.374Z,6.48
2022-12-01T00:06:19.354Z,6.40
2022-12-01T00:07:19.414Z,6.35
2022-12-01T00:08:19.322Z,6.32
2022-12-01T00:09:20.257Z,6.28
2022-12-01T00:10:19.289Z,6.27
2022-12-01T00:11:19.267Z,6.30
2022-12-01T00:12:19.252Z,6.20
2022-12-01T00:13:19.236Z,6.24
2022-12-01T00:14:19.218Z,6.13
2022-12-01T00:15:19.200Z,6.20
2022-12-01T00:16:19.357Z,6.05
2022-12-01T00:17:19.168Z,6.05
2022-12-01T00:18:19.165Z,6.06
2022-12-01T00:19:19.134Z,6.08
2022-12-01T00:20:19.139Z,6.03
2022-12-01T00:21:19.102Z,6.03
2022-12-01T00:22:19.091Z,6.11
2022-12-01T00:23:19.064Z,5.98
2022-12-01T00:24:19.056Z,6.14
2022-12-01T00:25:19.032Z,6.03
2022-12-01T00:26:19.018Z,6.20
2022-12-01T00:27:18.998Z,6.10
2022-12-01T00:28:18.986Z,6.24
2022-12-01T00:29:18.965Z,6.11
2022-12-01T00:30:18.952Z,6.08
2022-12-01T00:31:18.988Z,6.17
2022-12-01T00:32:18.921Z,6.11
2022-12-01T00:33:18.911Z,6.03
2022-12-01T00:34:18.886Z,6.08
2022-12-01T00:35:18.871Z,6.03
2022-12-01T00:36:18.880Z,6.06
2022-12-01T00:37:18.833Z,5.87
2022-12-01T00:38:18.819Z,5.95
2022-12-01T00:39:18.800Z,5.98
2022-12-01T00:40:18.786Z,5.98
2022-12-01T00:41:18.769Z,5.93
2022-12-01T00:42:18.753Z,5.90
2022-12-01T00:43:18.836Z,5.95
2022-12-01T00:44:18.722Z,5.95
2022-12-01T00:45:18.702Z,6.05
2022-12-01T00:46:18.740Z,6.08
2022-12-01T00:47:18.666Z,6.03
2022-12-01T00:48:18.655Z,5.96
2022-12-01T00:49:18.637Z,6.03
2022-12-01T00:50:18.624Z,5.96
2022-12-01T00:51:18.609Z,6.02
2022-12-01T00:52:18.612Z,6.05
2022-12-01T00:53:18.567Z,6.02
2022-12-01T00:54:18.556Z,6.19
2022-12-01T00:55:18.534Z,6.05
2022-12-01T00:56:18.519Z,6.01
2022-12-01T00:57:18.499Z,5.99
2022-12-01T00:58:18.509Z,6.08
2022-12-01T00:59:18.491Z,5.98
2022-12-01T01:00:18.452Z,5.92
2022-12-01T01:01:18.519Z,5.85
2022-12-01T01:02:18.501Z,5.83
2022-12-01T01:03:18.399Z,5.88
2022-12-01T01:04:18.388Z,5.87
2022-12-01T01:05:18.368Z,5.90
2022-12-01T01:06:18.351Z,5.88
2022-12-01T01:07:18.333Z,5.83
2022-12-01T01:08:18.342Z,5.88
2022-12-01T01:09:18.299Z,5.92
2022-12-01T01:10:18.286Z,5.81
2022-12-01T01:11:18.264Z,5.90
2022-12-01T01:12:18.255Z,5.90
2022-12-01T01:13:18.232Z,5.88
2022-12-01T01:14:18.219Z,5.81
2022-12-01T01:15:18.200Z,5.87
2022-12-01T01:16:18.261Z,5.87
2022-12-01T01:17:18.163Z,5.87
2022-12-01T01:18:18.149Z,6.03
2022-12-01T01:19:18.131Z,5.85
2022-12-01T01:20:18.117Z,5.92
2022-12-01T01:21:18.096Z,5.87
2022-12-01T01:22:18.083Z,5.92
2022-12-01T01:23:18.063Z,5.80
2022-12-01T01:24:18.073Z,5.80
2022-12-01T01:25:18.029Z,5.70
2022-12-01T01:26:18.015Z,5.80
2022-12-01T01:27:17.996Z,5.69
2022-12-01T01:28:17.982Z,5.73
2022-12-01T01:29:17.960Z,5.74
2022-12-01T01:30:17.947Z,5.77
2022-12-01T01:31:18.057Z,5.65
2022-12-01T01:32:17.915Z,5.80
2022-12-01T01:33:17.895Z,5.83
2022-12-01T01:34:17.882Z,6.01
2022-12-01T01:35:17.867Z,5.85
2022-12-01T01:36:17.848Z,5.95
2022-12-01T01:37:17.837Z,5.96
2022-12-01T01:38:17.814Z,5.99
2022-12-01T01:39:17.794Z,5.83
2022-12-01T01:40:17.801Z,5.85
2022-12-01T01:41:17.760Z,5.87
2022-12-01T01:42:17.745Z,5.75
2022-12-01T01:43:17.726Z,5.88
2022-12-01T01:44:17.712Z,5.85
2022-12-01T01:45:17.693Z,5.90
2022-12-01T01:46:17.943Z,5.90
2022-12-01T01:47:17.660Z,5.88
2022-12-01T01:48:17.669Z,5.96
2022-12-01T01:49:17.678Z,6.03
2022-12-01T01:50:17.632Z,6.16
2022-12-01T01:51:17.611Z,6.05
2022-12-01T01:52:17.578Z,6.20
2022-12-01T01:53:17.559Z,6.16
2022-12-01T01:54:17.656Z,6.03
2022-12-01T01:55:17.524Z,6.02
2022-12-01T01:56:17.534Z,6.05
2022-12-01T01:57:17.490Z,6.19
2022-12-01T01:58:17.476Z,6.25
2022-12-01T01:59:17.460Z,6.25
2022-12-01T02:00:17.444Z,6.27
2022-12-01T02:01:17.494Z,6.38
2022-12-01T02:02:17.493Z,6.30
2022-12-01T02:03:17.395Z,6.25
2022-12-01T02:04:17.379Z,6.20
2022-12-01T02:05:17.357Z,6.30
2022-12-01T02:06:17.343Z,6.14
2022-12-01T02:07:17.323Z,6.17
2022-12-01T02:08:17.314Z,6.20
2022-12-01T02:09:17.289Z,6.30
2022-12-01T02:10:17.277Z,6.20
2022-12-01T02:11:17.258Z,6.16
2022-12-01T02:12:17.266Z,6.25
2022-12-01T02:13:17.223Z,6.20
2022-12-01T02:14:17.210Z,6.17
2022-12-01T02:15:17.190Z,6.25
2022-12-01T02:16:17.202Z,6.19
2022-12-01T02:17:17.156Z,6.24
2022-12-01T02:18:17.144Z,6.19
2022-12-01T02:19:17.123Z,6.17
2022-12-01T02:20:17.110Z,6.16
2022-12-01T02:21:17.092Z,6.17
2022-12-01T02:23:17.065Z,6.27
2022-12-01T02:24:17.041Z,6.19
2022-12-01T02:25:17.026Z,6.19
2022-12-01T02:26:17.007Z,6.24
2022-12-01T02:27:16.994Z,6.16
2022-12-01T02:28:16.998Z,6.19
2022-12-01T02:29:16.959Z,6.20
2022-12-01T02:30:16.939Z,6.14
2022-12-01T02:31:16.963Z,6.16
2022-12-01T02:32:16.908Z,6.01
2022-12-01T02:33:16.892Z,5.95
2022-12-01T02:34:16.872Z,6.02
2022-12-01T02:35:16.861Z,5.98
2022-12-01T02:36:16.852Z,6.14
2022-12-01T02:37:16.827Z,6.14
2022-12-01T02:38:16.806Z,6.20
2022-12-01T02:39:16.794Z,6.17
2022-12-01T02:40:16.775Z,6.08
2022-12-01T02:41:16.758Z,6.21
2022-12-01T02:42:16.742Z,6.16
2022-12-01T02:43:16.726Z,6.17
2022-12-01T02:44:16.729Z,6.14
2022-12-01T02:45:16.693Z,6.11
2022-12-01T02:46:16.766Z,6.01
2022-12-01T02:47:16.661Z,5.99
2022-12-01T02:48:16.640Z,5.90
2022-12-01T02:49:16.626Z,5.96
2022-12-01T02:50:16.608Z,5.93
2022-12-01T02:51:16.593Z,6.01
2022-12-01T02:52:16.576Z,6.08
2022-12-01T02:53:16.556Z,6.03
2022-12-01T02:54:16.543Z,6.03
2022-12-01T02:55:16.523Z,5.96
2022-12-01T02:56:16.510Z,5.87
2022-12-01T02:57:16.494Z,5.88
2022-12-01T02:58:16.476Z,5.80
2022-12-01T02:59:16.457Z,5.73
2022-12-01T03:00:16.466Z,5.70
2022-12-01T03:01:16.485Z,5.75
2022-12-01T03:02:16.452Z,5.67
2022-12-01T03:03:16.393Z,5.66
2022-12-01T03:04:16.375Z,5.67
2022-12-01T03:05:16.358Z,5.65
2022-12-01T03:06:16.341Z,5.55
2022-12-01T03:07:16.322Z,5.65
2022-12-01T03:08:16.308Z,5.56
2022-12-01T03:09:16.287Z,5.60
2022-12-01T03:10:16.276Z,5.62
2022-12-01T03:11:16.255Z,5.60
2022-12-01T03:12:16.248Z,5.56
2022-12-01T03:13:16.220Z,5.56
2022-12-01T03:14:16.207Z,5.52
2022-12-01T03:15:16.192Z,5.51
2022-12-01T03:16:16.325Z,5.52
2022-12-01T03:17:16.152Z,5.52
2022-12-01T03:18:16.140Z,5.59
2022-12-01T03:19:16.124Z,5.52
2022-12-01T03:20:16.107Z,5.55
2022-12-01T03:21:16.088Z,5.44
2022-12-01T03:22:16.073Z,5.44
2022-12-01T03:23:16.055Z,5.45
2022-12-01T03:24:16.042Z,5.40
2022-12-01T03:25:16.017Z,5.41
2022-12-01T03:26:16.005Z,5.41
2022-12-01T03:27:15.984Z,5.35
2022-12-01T03:28:23.174Z,5.38
2022-12-01T03:29:15.949Z,5.44
2022-12-01T03:30:15.953Z,5.42
2022-12-01T03:31:15.944Z,5.32
2022-12-01T03:32:15.921Z,5.29
2022-12-01T03:33:15.882Z,5.27
2022-12-01T03:34:15.869Z,5.30
2022-12-01T03:35:15.848Z,5.24
2022-12-01T03:36:15.834Z,5.32
2022-12-01T03:37:15.813Z,5.32
2022-12-01T03:38:15.801Z,5.37
2022-12-01T03:39:15.779Z,5.38
2022-12-01T03:40:15.766Z,5.29
2022-12-01T03:41:15.744Z,5.33
2022-12-01T03:42:15.736Z,5.40
2022-12-01T03:43:15.713Z,5.29
2022-12-01T03:44:15.698Z,5.35
2022-12-01T03:45:15.677Z,5.30
2022-12-01T03:46:15.717Z,5.27
2022-12-01T03:47:15.645Z,5.23
2022-12-01T03:48:15.648Z,5.23
2022-12-01T03:49:15.610Z,5.33
2022-12-01T03:50:15.594Z,5.23
2022-12-01T03:51:15.575Z,5.24
2022-12-01T03:52:15.563Z,5.22
2022-12-01T03:53:15.540Z,5.20
2022-12-01T03:54:15.526Z,5.27
2022-12-01T03:55:15.507Z,5.20
2022-12-01T03:56:15.494Z,5.19
2022-12-01T03:57:15.472Z,5.17
2022-12-01T03:58:15.459Z,5.20
2022-12-01T03:59:15.438Z,5.22
2022-12-01T04:00:15.427Z,5.19
2022-12-01T04:01:15.494Z,5.20
2022-12-01T04:02:15.389Z,5.15
2022-12-01T04:03:15.420Z,5.12
2022-12-01T04:04:15.380Z,5.14
2022-12-01T04:05:15.336Z,5.20
2022-12-01T04:06:15.321Z,5.20
2022-12-01T04:07:15.300Z,5.22
2022-12-01T04:08:15.293Z,5.17
2022-12-01T04:09:15.266Z,5.19
2022-12-01T04:10:15.250Z,5.15
2022-12-01T04:11:15.232Z,5.23
2022-12-01T04:12:15.218Z,5.26
2022-12-01T04:13:15.197Z,5.19
2022-12-01T04:14:15.183Z,5.24
2022-12-01T04:15:15.161Z,5.23
2022-12-01T04:16:15.275Z,5.29
2022-12-01T04:17:15.128Z,5.22
2022-12-01T04:18:15.114Z,5.26
2022-12-01T04:19:15.093Z,5.20
2022-12-01T04:20:15.100Z,5.24
2022-12-01T04:21:15.059Z,5.17
2022-12-01T04:22:15.045Z,5.20
2022-12-01T04:23:15.025Z,5.12
2022-12-01T04:24:15.011Z,5.09
2022-12-01T04:25:14.995Z,5.08
2022-12-01T04:26:16.008Z,5.15
2022-12-01T04:27:14.955Z,5.19
2022-12-01T04:28:14.947Z,5.19
2022-12-01T04:29:14.920Z,5.20
2022-12-01T04:30:14.911Z,5.17
2022-12-01T04:31:15.015Z,5.02
2022-12-01T04:32:14.872Z,5.15
2022-12-01T04:33:14.852Z,5.09
2022-12-01T04:34:14.840Z,5.06
2022-12-01T04:35:14.872Z,5.06
2022-12-01T04:36:14.825Z,5.11
2022-12-01T04:37:14.789Z,5.11
2022-12-01T04:39:14.751Z,5.11
2022-12-01T04:40:14.731Z,5.09
2022-12-01T04:41:14.716Z,5.11
2022-12-01T04:43:14.679Z,5.04
2022-12-01T04:44:14.666Z,5.05
2022-12-01T04:45:14.644Z,5.11
2022-12-01T04:46:14.654Z,5.08
2022-12-01T04:47:14.610Z,5.11
2022-12-01T04:48:14.596Z,5.19
2022-12-01T04:49:14.575Z,5.09
2022-12-01T04:50:14.561Z,5.09
2022-12-01T04:51:14.541Z,5.08
2022-12-01T04:52:14.551Z,5.12
2022-12-01T04:53:14.505Z,5.15
2022-12-01T04:54:14.492Z,5.09
2022-12-01T04:55:14.471Z,5.09
2022-12-01T04:56:14.508Z,5.09
2022-12-01T04:57:14.453Z,5.09
2022-12-01T04:58:14.422Z,5.11
2022-12-01T04:59:14.403Z,5.06
2022-12-01T05:00:14.390Z,5.12
2022-12-01T05:01:14.456Z,5.08
2022-12-01T05:02:14.498Z,5.06
2022-12-01T05:03:15.334Z,5.08
2022-12-01T05:04:14.319Z,5.08
2022-12-01T05:05:14.307Z,5.12
2022-12-01T05:06:14.286Z,5.08
2022-12-01T05:07:14.264Z,5.08
2022-12-01T05:08:14.272Z,5.05
2022-12-01T05:09:17.151Z,5.08
2022-12-01T05:10:14.221Z,5.12
2022-12-01T05:11:14.198Z,5.11
2022-12-01T05:12:14.181Z,5.06
2022-12-01T05:13:14.160Z,5.05
2022-12-01T05:14:14.146Z,5.04
2022-12-01T05:15:14.126Z,5.06
2022-12-01T05:16:14.182Z,5.02
2022-12-01T05:17:14.092Z,5.01
2022-12-01T05:18:14.125Z,4.96
2022-12-01T05:19:14.056Z,4.99
2022-12-01T05:20:14.043Z,4.93
2022-12-01T05:21:14.020Z,5.02
2022-12-01T05:22:14.008Z,4.93
2022-12-01T05:23:16.935Z,4.93
2022-12-01T05:24:13.996Z,4.96
2022-12-01T05:25:13.953Z,4.93
2022-12-01T05:26:13.939Z,4.96
2022-12-01T05:27:13.919Z,4.91
2022-12-01T05:28:13.904Z,4.87
2022-12-01T05:29:13.917Z,4.87
2022-12-01T05:30:13.868Z,4.96
2022-12-01T05:31:13.936Z,4.87
2022-12-01T05:32:13.834Z,4.83
2022-12-01T05:33:13.812Z,4.84
2022-12-01T05:34:13.801Z,4.88
2022-12-01T05:35:13.779Z,4.83
2022-12-01T05:36:13.766Z,4.84
2022-12-01T05:37:13.743Z,4.86
2022-12-01T05:38:13.729Z,4.84
2022-12-01T05:39:13.710Z,4.86
2022-12-01T05:40:13.713Z,4.88
2022-12-01T05:41:13.674Z,4.80
2022-12-01T05:42:13.659Z,4.88
2022-12-01T05:43:13.639Z,4.86
2022-12-01T05:44:13.624Z,4.84
2022-12-01T05:45:13.603Z,4.87
2022-12-01T05:46:13.647Z,4.88
2022-12-01T05:47:13.570Z,4.88
2022-12-01T05:48:13.555Z,4.88
2022-12-01T05:49:13.534Z,4.87
2022-12-01T05:50:13.520Z,4.86
2022-12-01T05:51:13.505Z,4.86
2022-12-01T05:52:13.486Z,4.91
2022-12-01T05:53:13.567Z,4.93
2022-12-01T05:54:13.457Z,4.96
2022-12-01T05:55:13.429Z,4.93
2022-12-01T05:56:13.433Z,4.96
2022-12-01T05:57:13.394Z,4.83
2022-12-01T05:58:13.380Z,4.93
2022-12-01T05:59:13.359Z,4.90
2022-12-01T06:00:13.346Z,4.91
2022-12-01T06:01:13.325Z,4.96
2022-12-01T06:02:13.338Z,4.90
2022-12-01T06:03:13.297Z,4.90
2022-12-01T06:04:13.345Z,4.84
2022-12-01T06:05:13.255Z,4.93
2022-12-01T06:06:13.247Z,4.90
2022-12-01T06:07:13.322Z,4.88
2022-12-01T06:08:13.209Z,4.86
2022-12-01T06:09:13.184Z,4.80
2022-12-01T06:10:13.172Z,4.86
2022-12-01T06:11:13.153Z,4.83
2022-12-01T06:12:13.160Z,4.88
2022-12-01T06:13:13.116Z,4.83
2022-12-01T06:14:13.102Z,4.86
2022-12-01T06:15:13.083Z,4.83
2022-12-01T06:16:13.135Z,4.79
2022-12-01T06:17:13.056Z,4.77
2022-12-01T06:18:13.033Z,4.80
2022-12-01T06:19:13.018Z,4.80
2022-12-01T06:20:13.007Z,4.80
2022-12-01T06:21:12.977Z,4.87
2022-12-01T06:22:12.963Z,4.87
2022-12-01T06:23:12.943Z,4.84
2022-12-01T06:24:12.933Z,4.84
2022-12-01T06:25:12.906Z,4.84
2022-12-01T06:26:12.893Z,4.84
2022-12-01T06:27:12.876Z,4.88
2022-12-01T06:28:12.876Z,4.77
2022-12-01T06:29:12.838Z,4.80
2022-12-01T06:30:12.823Z,4.77
2022-12-01T06:31:12.804Z,4.77
2022-12-01T06:32:12.788Z,4.80
2022-12-01T06:33:12.769Z,4.80
2022-12-01T06:34:12.754Z,4.84
2022-12-01T06:35:12.738Z,4.87
2022-12-01T06:36:12.723Z,4.71
2022-12-01T06:37:12.697Z,4.77
2022-12-01T06:38:12.683Z,4.87
2022-12-01T06:39:12.667Z,4.88
2022-12-01T06:40:12.664Z,4.69
2022-12-01T06:41:12.630Z,4.74
2022-12-01T06:42:12.668Z,4.79
2022-12-01T06:43:12.600Z,4.72
2022-12-01T06:44:12.602Z,4.79
2022-12-01T06:45:12.557Z,4.69
2022-12-01T06:46:12.585Z,4.77
2022-12-01T06:47:12.524Z,4.72
2022-12-01T06:48:12.509Z,4.72
2022-12-01T06:49:12.488Z,4.77
2022-12-01T06:50:12.478Z,4.74
2022-12-01T06:51:12.456Z,4.80
2022-12-01T06:52:12.442Z,4.84
2022-12-01T06:53:12.418Z,4.80
2022-12-01T06:54:12.407Z,4.75
2022-12-01T06:55:12.382Z,4.80
2022-12-01T06:56:12.369Z,4.77
2022-12-01T06:57:12.348Z,4.79
2022-12-01T06:58:12.335Z,4.71
2022-12-01T06:59:12.315Z,4.80
2022-12-01T07:00:12.325Z,4.79
2022-12-01T07:01:12.371Z,4.75
2022-12-01T07:02:12.343Z,4.79
2022-12-01T07:03:12.243Z,4.83
2022-12-01T07:04:12.230Z,4.67
2022-12-01T07:05:12.211Z,4.79
2022-12-01T07:06:12.196Z,4.72
2022-12-01T07:07:12.187Z,4.80
2022-12-01T07:08:12.266Z,4.77
2022-12-01T07:09:12.212Z,4.83
2022-12-01T07:10:12.285Z,4.83
2022-12-01T07:11:12.118Z,4.84
2022-12-01T07:12:12.216Z,4.83
2022-12-01T07:13:12.110Z,4.84
2022-12-01T07:14:12.052Z,4.80
2022-12-01T07:15:12.108Z,4.86
2022-12-01T07:16:12.118Z,4.80
2022-12-01T07:17:12.005Z,4.84
2022-12-01T07:18:11.983Z,4.87
2022-12-01T07:19:11.967Z,4.80
2022-12-01T07:20:11.957Z,4.79
2022-12-01T07:21:11.932Z,4.87
2022-12-01T07:22:11.911Z,4.83
2022-12-01T07:23:11.899Z,4.84
2022-12-01T07:24:11.880Z,4.90
2022-12-01T07:25:11.862Z,4.83
2022-12-01T07:26:11.844Z,4.79
2022-12-01T07:27:11.829Z,4.79
2022-12-01T07:28:11.808Z,4.88
2022-12-01T07:29:11.893Z,4.86
2022-12-01T07:30:11.772Z,4.80
2022-12-01T07:31:11.819Z,4.86
2022-12-01T07:32:11.763Z,4.90
2022-12-01T07:33:11.722Z,4.93
2022-12-01T07:34:11.703Z,4.86
2022-12-01T07:35:11.688Z,4.90
2022-12-01T07:36:11.670Z,4.87
2022-12-01T07:37:11.653Z,4.87
2022-12-01T07:38:11.633Z,4.86
2022-12-01T07:39:11.619Z,4.88
2022-12-01T07:40:11.598Z,4.86
2022-12-01T07:41:11.587Z,4.87
2022-12-01T07:42:11.567Z,4.80
2022-12-01T07:43:11.550Z,4.86
2022-12-01T07:44:11.530Z,4.90
2022-12-01T07:45:11.514Z,4.94
2022-12-01T07:46:12.868Z,4.87
2022-12-01T07:47:11.529Z,4.94
2022-12-01T07:48:11.478Z,5.04
2022-12-01T07:49:11.445Z,4.99
2022-12-01T07:50:11.426Z,4.97
2022-12-01T07:52:11.392Z,5.09
2022-12-01T07:53:11.372Z,5.04
2022-12-01T07:54:11.358Z,4.99
2022-12-01T07:55:11.341Z,4.94
2022-12-01T07:56:11.323Z,5.05
2022-12-01T07:57:11.302Z,5.04
2022-12-01T07:58:11.289Z,5.08
2022-12-01T07:59:11.280Z,5.01
2022-12-01T08:00:11.253Z,5.01
2022-12-01T08:01:11.322Z,5.02
2022-12-01T08:02:11.335Z,5.04
2022-12-01T08:03:11.311Z,5.06
2022-12-01T08:04:11.208Z,5.01
2022-12-01T08:05:11.163Z,5.01
2022-12-01T08:06:11.155Z,5.09
2022-12-01T08:07:11.130Z,5.02
2022-12-01T08:08:11.205Z,5.04
2022-12-01T08:09:11.095Z,5.09
2022-12-01T08:10:11.081Z,5.09
2022-12-01T08:11:11.065Z,5.11
2022-12-01T08:12:11.047Z,5.15
2022-12-01T08:13:17.007Z,5.11
2022-12-01T08:14:11.012Z,5.11
2022-12-01T08:15:10.991Z,5.20
2022-12-01T08:16:11.019Z,5.08
2022-12-01T08:17:10.958Z,5.12
2022-12-01T08:18:10.943Z,5.12
2022-12-01T08:19:11.125Z,5.20
2022-12-01T08:20:10.925Z,5.19
2022-12-01T08:21:10.886Z,5.22
2022-12-01T08:22:10.874Z,5.24
2022-12-01T08:23:10.853Z,5.19
2022-12-01T08:24:10.840Z,5.23
2022-12-01T08:25:10.818Z,5.15
2022-12-01T08:26:10.804Z,5.14
2022-12-01T08:27:10.784Z,5.26
2022-12-01T08:28:10.776Z,5.29
2022-12-01T08:29:13.553Z,5.23
2022-12-01T08:30:10.738Z,5.24
2022-12-01T08:31:10.886Z,5.23
2022-12-01T08:32:10.702Z,5.27
2022-12-01T08:33:10.681Z,5.23
2022-12-01T08:34:10.673Z,5.33
2022-12-01T08:35:10.660Z,5.41
2022-12-01T08:36:10.662Z,5.42
2022-12-01T08:37:10.717Z,5.37
2022-12-01T08:38:10.598Z,5.41
2022-12-01T08:39:10.579Z,5.41
2022-12-01T08:40:10.565Z,5.37
2022-12-01T08:41:10.546Z,5.41
2022-12-01T08:42:10.529Z,5.33
2022-12-01T08:43:28.261Z,5.44
2022-12-01T08:44:10.550Z,5.32
2022-12-01T08:45:10.475Z,5.38
2022-12-01T08:46:10.500Z,5.42
2022-12-01T08:47:14.303Z,5.42
2022-12-01T08:48:10.429Z,5.42
2022-12-01T08:49:10.409Z,5.40
2022-12-01T08:50:10.399Z,5.44
2022-12-01T08:51:10.372Z,5.37
2022-12-01T08:53:10.360Z,5.35
2022-12-01T08:54:10.321Z,5.29
2022-12-01T08:55:10.308Z,5.41
2022-12-01T08:56:10.291Z,5.45
2022-12-01T08:57:10.273Z,5.37
2022-12-01T08:58:10.252Z,5.47
2022-12-01T08:59:10.239Z,5.48
2022-12-01T09:00:10.219Z,5.49
2022-12-01T09:01:10.203Z,5.51
2022-12-01T09:02:10.270Z,5.48
2022-12-01T09:03:10.211Z,5.56
2022-12-01T09:04:10.151Z,5.55
2022-12-01T09:05:10.137Z,5.48
2022-12-01T09:06:10.119Z,5.52
2022-12-01T09:07:10.102Z,5.47
2022-12-01T09:08:10.146Z,5.55
2022-12-01T09:09:10.094Z,5.60
2022-12-01T09:10:10.057Z,5.58
2022-12-01T09:11:10.033Z,5.55
2022-12-01T09:12:10.015Z,5.62
2022-12-01T09:13:09.999Z,5.58
2022-12-01T09:14:09.980Z,5.60
2022-12-01T09:15:09.965Z,5.60
2022-12-01T09:16:10.015Z,5.59
2022-12-01T09:17:09.931Z,5.56
2022-12-01T09:18:09.914Z,5.59
2022-12-01T09:19:09.900Z,5.58
2022-12-01T09:20:09.885Z,5.56
2022-12-01T09:21:09.862Z,5.56
2022-12-01T09:22:09.846Z,5.60
2022-12-01T09:23:09.829Z,5.66
2022-12-01T09:24:09.809Z,5.62
2022-12-01T09:25:09.828Z,5.67
2022-12-01T09:26:13.573Z,5.69
2022-12-01T09:27:09.765Z,5.78
2022-12-01T09:28:09.741Z,5.70
2022-12-01T09:29:09.728Z,5.87
2022-12-01T09:30:09.757Z,5.87
2022-12-01T09:31:09.734Z,5.80
2022-12-01T09:32:09.673Z,5.78
2022-12-01T09:33:09.658Z,5.92
2022-12-01T09:34:09.640Z,5.85
2022-12-01T09:35:09.625Z,5.95
2022-12-01T09:36:09.606Z,5.85
2022-12-01T09:37:09.593Z,5.96
2022-12-01T09:38:09.571Z,5.95
2022-12-01T09:39:09.557Z,5.93
2022-12-01T09:40:09.537Z,5.96
2022-12-01T09:41:09.575Z,5.99
2022-12-01T09:42:09.633Z,5.95
2022-12-01T09:43:09.490Z,5.93
2022-12-01T09:44:09.471Z,6.03
2022-12-01T09:45:09.460Z,6.05
2022-12-01T09:46:09.435Z,6.08
2022-12-01T09:47:09.485Z,5.98
2022-12-01T09:48:09.402Z,5.95
2022-12-01T09:49:09.389Z,5.99
2022-12-01T09:50:09.383Z,5.96
2022-12-01T09:51:09.356Z,6.02
2022-12-01T09:52:09.335Z,5.98
2022-12-01T09:53:09.322Z,5.90
2022-12-01T09:54:09.302Z,5.87
2022-12-01T09:55:09.288Z,5.78
2022-12-01T09:56:12.925Z,5.87
2022-12-01T09:57:09.284Z,5.85
2022-12-01T09:58:09.236Z,5.80
2022-12-01T09:59:09.220Z,5.70
2022-12-01T10:00:09.201Z,5.74
2022-12-01T10:01:09.248Z,5.75
2022-12-01T10:02:09.200Z,5.70
2022-12-01T10:03:09.156Z,5.83
2022-12-01T10:04:09.134Z,5.85
2022-12-01T10:05:09.186Z,5.80
2022-12-01T10:07:09.087Z,5.92
2022-12-01T10:08:09.295Z,5.95
2022-12-01T10:09:09.055Z,5.92
2022-12-01T10:10:09.035Z,5.96
2022-12-01T10:11:09.019Z,5.85
2022-12-01T10:12:08.999Z,6.02
2022-12-01T10:13:09.011Z,6.01
2022-12-01T10:14:08.968Z,5.95
2022-12-01T10:15:08.952Z,5.85
2022-12-01T10:16:09.020Z,5.90
2022-12-01T10:17:08.923Z,5.95
2022-12-01T10:18:08.898Z,6.03
2022-12-01T10:19:08.884Z,6.06
2022-12-01T10:20:08.864Z,6.06
2022-12-01T10:21:08.851Z,6.02
2022-12-01T10:22:08.831Z,6.03
2022-12-01T10:23:08.818Z,6.06
2022-12-01T10:24:08.796Z,5.98
2022-12-01T10:25:08.782Z,6.03
2022-12-01T10:26:08.767Z,5.98
2022-12-01T10:27:08.749Z,6.06
2022-12-01T10:28:08.731Z,6.03
2022-12-01T10:29:08.739Z,6.01
2022-12-01T10:30:08.697Z,5.99
2022-12-01T10:31:08.756Z,6.05
2022-12-01T10:32:08.666Z,6.11
2022-12-01T10:33:08.649Z,6.11
2022-12-01T10:34:08.629Z,6.24
2022-12-01T10:35:08.634Z,6.17
2022-12-01T10:36:08.596Z,6.16
2022-12-01T10:37:08.582Z,6.21
2022-12-01T10:38:08.580Z,6.25
2022-12-01T10:39:08.549Z,6.16
2022-12-01T10:40:08.530Z,6.21
2022-12-01T10:41:08.519Z,6.19
2022-12-01T10:42:08.496Z,6.20
2022-12-01T10:43:08.484Z,6.17
2022-12-01T10:44:08.461Z,6.24
2022-12-01T10:45:08.484Z,6.25
2022-12-01T10:46:08.491Z,6.24
2022-12-01T10:47:08.416Z,6.21
2022-12-01T10:48:08.404Z,6.30
2022-12-01T10:49:08.381Z,6.27
2022-12-01T10:50:08.362Z,6.28
2022-12-01T10:51:08.348Z,6.24
2022-12-01T10:52:08.336Z,6.36
2022-12-01T10:53:08.314Z,6.28
2022-12-01T10:54:08.296Z,6.28
2022-12-01T10:55:08.282Z,6.32
2022-12-01T10:56:08.262Z,6.28
2022-12-01T10:57:08.248Z,6.25
2022-12-01T10:58:09.545Z,6.25
2022-12-01T10:59:08.215Z,6.20
2022-12-01T11:00:08.197Z,6.20
2022-12-01T11:01:08.324Z,6.20
2022-12-01T11:02:08.345Z,6.13
2022-12-01T11:03:08.471Z,6.14
2022-12-01T11:04:08.133Z,6.06
2022-12-01T11:05:08.115Z,6.21
2022-12-01T11:06:08.098Z,6.06
2022-12-01T11:07:08.084Z,6.08
2022-12-01T11:08:08.095Z,6.01
2022-12-01T11:09:08.048Z,5.90
2022-12-01T11:10:08.029Z,6.03
2022-12-01T11:11:08.016Z,5.93
2022-12-01T11:12:07.996Z,5.95
2022-12-01T11:13:07.982Z,5.93
2022-12-01T11:14:08.068Z,5.93
2022-12-01T11:15:07.948Z,5.96
2022-12-01T11:16:07.952Z,5.95
2022-12-01T11:17:07.935Z,6.01
2022-12-01T11:18:07.897Z,5.93
2022-12-01T11:19:07.912Z,5.98
2022-12-01T11:20:07.907Z,5.96
2022-12-01T11:21:07.848Z,5.96
2022-12-01T11:22:07.828Z,5.95
2022-12-01T11:23:07.814Z,5.98
2022-12-01T11:24:07.797Z,6.05
2022-12-01T11:25:07.780Z,5.92
2022-12-01T11:26:07.760Z,5.95
2022-12-01T11:27:07.746Z,5.96
2022-12-01T11:28:07.730Z,5.99
2022-12-01T11:29:07.711Z,5.95
2022-12-01T11:30:07.697Z,6.03
2022-12-01T11:31:07.678Z,6.02
2022-12-01T11:32:07.739Z,5.99
2022-12-01T11:33:07.760Z,5.93
2022-12-01T11:34:07.629Z,5.99
2022-12-01T11:35:07.623Z,5.98
2022-12-01T11:36:11.740Z,5.90
2022-12-01T11:37:07.578Z,5.95
2022-12-01T11:38:29.147Z,5.93
2022-12-01T11:39:07.543Z,6.02
2022-12-01T11:40:07.529Z,5.99
2022-12-01T11:41:07.508Z,5.90
2022-12-01T11:42:07.494Z,5.83
2022-12-01T11:43:07.475Z,5.84
2022-12-01T11:44:22.375Z,5.88
2022-12-01T11:45:07.442Z,5.83
2022-12-01T11:46:07.648Z,5.84
2022-12-01T11:47:22.290Z,5.87
2022-12-01T11:48:07.401Z,5.80
2022-12-01T11:49:07.422Z,5.85
2022-12-01T11:50:07.565Z,5.87
2022-12-01T11:51:07.393Z,5.84
2022-12-01T11:52:07.328Z,5.85
2022-12-01T11:53:07.307Z,5.83
2022-12-01T11:54:07.295Z,5.80
2022-12-01T11:55:10.132Z,5.80
2022-12-01T11:56:07.261Z,5.87
2022-12-01T11:57:32.595Z,5.84
2022-12-01T11:58:07.226Z,5.80
2022-12-01T11:59:07.205Z,5.83
2022-12-01T12:00:07.192Z,5.81
2022-12-01T12:01:07.172Z,5.81
2022-12-01T12:02:07.206Z,5.77
2022-12-01T12:03:07.200Z,5.70
2022-12-01T12:04:07.124Z,5.88
2022-12-01T12:05:07.148Z,5.78
2022-12-01T12:06:32.302Z,5.84
2022-12-01T12:07:07.071Z,5.87
2022-12-01T12:08:07.136Z,5.85
2022-12-01T12:09:07.058Z,5.90
2022-12-01T12:10:07.023Z,5.88
2022-12-01T12:11:07.033Z,5.87
2022-12-01T12:12:06.990Z,5.83
2022-12-01T12:13:06.971Z,5.84
2022-12-01T12:14:06.954Z,5.90
2022-12-01T12:15:06.935Z,5.78
2022-12-01T12:16:06.923Z,5.90
2022-12-01T12:17:06.902Z,5.87
2022-12-01T12:18:06.962Z,5.87
2022-12-01T12:19:07.113Z,5.87
2022-12-01T12:20:08.677Z,5.92
2022-12-01T12:21:06.857Z,5.88
2022-12-01T12:22:06.823Z,5.96
2022-12-01T12:23:06.800Z,5.87
2022-12-01T12:24:06.787Z,5.95
2022-12-01T12:25:06.766Z,5.87
2022-12-01T12:26:06.752Z,5.95
2022-12-01T12:27:06.733Z,5.95
2022-12-01T12:28:06.719Z,5.98
2022-12-01T12:29:12.235Z,6.01
2022-12-01T12:30:06.685Z,6.03
2022-12-01T12:31:06.707Z,6.06
2022-12-01T12:32:06.667Z,6.13
2022-12-01T12:33:06.633Z,6.11
2022-12-01T12:34:06.617Z,6.17
2022-12-01T12:35:06.598Z,6.21
2022-12-01T12:36:06.586Z,6.10
2022-12-01T12:37:06.589Z,6.16
2022-12-01T12:38:06.551Z,6.11
2022-12-01T12:39:06.536Z,6.24
2022-12-01T12:40:06.520Z,6.19
2022-12-01T12:41:06.497Z,6.24
2022-12-01T12:42:06.483Z,6.28
2022-12-01T12:43:06.464Z,6.21
2022-12-01T12:44:06.452Z,6.24
2022-12-01T12:45:06.441Z,6.25
2022-12-01T12:46:06.487Z,6.30
2022-12-01T12:47:06.397Z,6.32
2022-12-01T12:48:06.384Z,6.28
2022-12-01T12:49:21.697Z,6.25
2022-12-01T12:50:06.348Z,6.35
2022-12-01T12:51:06.330Z,6.36
2022-12-01T12:52:08.682Z,6.35
2022-12-01T12:53:06.325Z,6.35
2022-12-01T12:54:06.410Z,6.30
2022-12-01T12:55:06.265Z,6.24
2022-12-01T12:56:06.250Z,6.27
2022-12-01T12:57:06.231Z,6.20
2022-12-01T12:58:10.876Z,6.17
2022-12-01T12:59:06.210Z,6.25
2022-12-01T13:00:06.183Z,6.16
2022-12-01T13:01:06.237Z,6.14
2022-12-01T13:02:06.192Z,6.19
2022-12-01T13:03:06.270Z,6.19
2022-12-01T13:04:06.119Z,6.21
2022-12-01T13:05:06.098Z,6.19
2022-12-01T13:06:06.083Z,6.21
2022-12-01T13:07:06.073Z,6.25
2022-12-01T13:08:06.173Z,6.10
2022-12-01T13:09:06.050Z,6.10
2022-12-01T13:10:06.019Z,6.24
2022-12-01T13:11:05.997Z,6.24
2022-12-01T13:12:05.986Z,6.27
2022-12-01T13:13:05.962Z,6.24
2022-12-01T13:14:05.950Z,6.20
2022-12-01T13:15:05.932Z,6.13
2022-12-01T13:16:05.981Z,6.16
2022-12-01T13:17:05.896Z,6.16
2022-12-01T13:18:05.888Z,6.20
2022-12-01T13:19:05.875Z,6.33
2022-12-01T13:20:05.850Z,6.35
2022-12-01T13:21:05.831Z,6.43
2022-12-01T13:22:05.887Z,6.46
2022-12-01T13:23:05.802Z,6.38
2022-12-01T13:24:05.783Z,6.40